Flight Track Log - Related Links

Times and Time Zones

All times are in EDT time to prevent confusion due to time zone crossing. See the N450S flight status page for this flight to view local times or setup timezone preferences in your user account.

Time Position Orientation Groundspeed Altitude Reporting Facility
EDT Latitude Longitude Course Direction KTS MPH feet Rate Location/Type
Tue 07:47:27 AM 41.2931 -82.2606 217° Southwest 164 189 3,300  Level Cleveland Center
Tue 07:48:38 AM 41.2508 -82.3036 217° Southwest 191 220 4,500 1,374 Climbing Cleveland Center
Tue 07:49:38 AM 41.2083 -82.3439 215° Southwest 191 220 6,300 1,850 Climbing Cleveland Center
Tue 07:50:38 AM 41.1744 -82.3817 220° Southwest 172 198 8,200 1,750 Climbing Cleveland Center
Tue 07:51:38 AM 41.1386 -82.4167 216° Southwest 167 192 9,800 1,600 Climbing Cleveland Center
Tue 07:52:38 AM 41.1044 -82.4514 217° Southwest 162 186 11,400 1,550 Climbing Cleveland Center
Tue 07:53:38 AM 41.0683 -82.4917 220° Southwest 162 186 12,900 1,500 Climbing Cleveland Center
Tue 07:54:38 AM 41.0281 -82.5319 217° Southwest 167 192 14,400 1,050 Climbing Cleveland Center
Tue 07:55:38 AM 40.9858 -82.5775 219° Southwest 185 213 15,000 300 Climbing Cleveland Center
Tue 07:56:38 AM 40.9347 -82.6281 217° Southwest 219 252 15,000  Level Cleveland Center
Tue 07:58:29 AM 40.8311 -82.7292 216° Southwest 251 289 15,000  Level Indianapolis Center
Tue 07:59:30 AM 40.7769 -82.7839 217° Southwest 244 281 15,000  Level Indianapolis Center
Tue 08:00:32 AM 40.7364 -82.8544 233° Southwest 244 281 15,000  Level Indianapolis Center
Tue 08:01:33 AM 40.6969 -82.9283 235° Southwest 244 281 15,000  Level Indianapolis Center
Tue 08:02:35 AM 40.6547 -83.0011 233° Southwest 247 284 15,000  Level Indianapolis Center
Tue 08:03:37 AM 40.6147 -83.0756 235° Southwest 248 285 15,000 -49 Level Indianapolis Center
Tue 08:04:38 AM 40.5708 -83.1567 235° Southwest 249 287 14,900 -98 Descending Indianapolis Center
Tue 08:05:40 AM 40.5294 -83.2297 233° Southwest 248 285 14,800 -365 Descending Indianapolis Center
Tue 08:06:33 AM 40.4906 -83.3006 234° Southwest 260 299 14,200 -742 Descending Indianapolis Center
Tue 08:07:09 AM 40.4642 -83.3494 235° Southwest 263 303 13,700 -771 Descending Indianapolis Center
Tue 08:07:43 AM 40.4431 -83.3861 233° Southwest 265 305 13,300 -806 Descending Indianapolis Center
Tue 08:08:16 AM 40.4139 -83.4367 233° Southwest 261 300 12,800 -774 Descending Indianapolis Center
Tue 08:08:45 AM 40.3997 -83.4628 235° Southwest 262 302 12,500 -787 Descending Indianapolis Center
Tue 08:09:17 AM 40.3728 -83.5136 235° Southwest 261 300 12,000 -787 Descending Indianapolis Center
Tue 08:09:46 AM 40.3567 -83.5394 231° Southwest 259 298 11,700 -778 Descending Indianapolis Center
Tue 08:10:11 AM 40.3319 -83.5853 235° Southwest 260 299 11,300 -677 Descending Indianapolis Center
Tue 08:10:48 AM 40.3144 -83.6161 233° Southwest 258 297 11,000 -393 Descending Indianapolis Center
Tue 08:11:12 AM 40.2908 -83.6594 234° Southwest 254 292 10,900 -581 Descending Indianapolis Center
Tue 08:11:50 AM 40.2733 -83.6881 231° Southwest 249 287 10,400 -896 Descending Indianapolis Center
Tue 08:12:19 AM 40.2417 -83.7297 225° Southwest 250 288 9,900 -787 Descending Indianapolis Center
Tue 08:12:51 AM 40.2061 -83.7458 199° South 253 291 9,600 -625 Descending Indianapolis Center
Tue 08:13:07 AM 40.1892 -83.7614 215° Southwest 249 287 9,400 -581 Descending Indianapolis Center
Tue 08:13:53 AM 40.1450 -83.7864 203° Southwest 246 283 9,000 -537 Descending Indianapolis Center
Tue 08:14:14 AM 40.1233 -83.8022 209° Southwest 244 281 8,800 -581 Descending Indianapolis Center
Tue 08:14:55 AM 40.0831 -83.8250 203° Southwest 245 282 8,400 -590 Descending Indianapolis Center
Tue 08:15:15 AM 40.0597 -83.8378 203° Southwest 244 281 8,200 -590 Descending Indianapolis Center
Tue 08:15:56 AM 40.0208 -83.8631 206° Southwest 246 283 7,800 -524 Descending Indianapolis Center
Tue 08:16:58 AM 39.9572 -83.9003 204° Southwest 247 284 7,300 -593 Descending Indianapolis Center
Tue 08:17:17 AM 39.9322 -83.9194 210° Southwest 251 289 7,000 -590 Descending Indianapolis Center
Tue 08:17:59 AM 39.8956 -83.9394 203° Southwest 247 284 6,700 -500 Descending Indianapolis Center
Tue 08:18:17 AM 39.8683 -83.9575 207° Southwest 244 281 6,500 -581 Descending Indianapolis Center
Tue 08:19:01 AM 39.8336 -83.9778 204° Southwest 246 283 6,100 -590 Descending Indianapolis Center
Tue 08:19:18 AM 39.8069 -83.9931 204° Southwest 244 281 5,900 -677 Descending Indianapolis Center
Tue 08:20:03 AM 39.7617 -84.0222 206° Southwest 245 282 5,400 -566 Descending Indianapolis Center
Tue 08:21:04 AM 39.7006 -84.0583 204° Southwest 242 278 4,900 -537 Descending Indianapolis Center
Tue 08:22:06 AM 39.6397 -84.0953 205° Southwest 241 277 4,300 -435 Descending Indianapolis Center
Tue 08:23:08 AM 39.5806 -84.1311 205° Southwest 238 274 4,000 -145 Descending Indianapolis Center
Tue 08:24:10 AM 39.5233 -84.1661 205° Southwest 232 267 4,000  Level Indianapolis Center
Tue 08:25:11 AM 39.4678 -84.1994 205° Southwest 224 258 4,000  Level Indianapolis Center
Tue 08:26:13 AM 39.4122 -84.2336 205° Southwest 221 254 4,000  Level Indianapolis Center
Tue 08:27:15 AM 39.3567 -84.2667 205° Southwest 219 252 4,000 -244 Level Indianapolis Center
Tue 08:28:16 AM 39.3011 -84.3028 207° Southwest 220 253 3,500 -341 Descending Indianapolis Center
Tue 08:29:18 AM 39.2383 -84.3500 210° Southwest 222 255 3,300 -484 Descending Indianapolis Center
Tue 08:30:20 AM 39.1986 -84.3656 197° South 170 196 2,500 -537 Descending Indianapolis Center
Tue 08:31:21 AM 39.1650 -84.3822 201° Southwest 162 186 2,200 -295 Descending Indianapolis Center
Tue 08:34:00 AM 39.1000 -84.4167 195° South  Level FlightAware Approximate
Tue 08:41:00 AM 39.1033 -84.4186 195° South  Level Estimated
Tue 08:42:00 AM 39.1000 -84.4167 195° South  Level FlightAware Approximate

Login

Don't have an account? Register now (free) for customized features, flight alerts, and more!